Time;durP1;ratioP1;P1;durP2;ratioP2;P2;SDS_P1;SDS_P2;PMS_P1;PMS_P2;Temp;Humidity;BMP_temperature;BMP_pressure;BME280_temperature;BME280_humidity;BME280_pressure;Samples;Min_cycle;Max_cycle;Signal;HPM_P1;HPM_P2
2023/03/12 00:00:07;;;;;;;13.30;12.13;;;;;;;-0.23;98.07;98236.59;4136296;28;20208;-50
2023/03/12 00:02:10;;;;;;;13.60;12.30;;;;;;;-0.22;98.06;98230.22;4119364;28;20329;-48
2023/03/12 00:04:12;;;;;;;12.17;10.77;;;;;;;-0.21;98.14;98234.56;4110264;28;20668;-49
2023/03/12 00:06:14;;;;;;;12.27;10.03;;;;;;;-0.27;98.13;98232.63;4133633;28;20205;-49
2023/03/12 00:08:16;;;;;;;10.53;9.63;;;;;;;-0.24;98.27;98226.88;4122053;28;20716;-50
2023/03/12 00:10:19;;;;;;;11.07;10.10;;;;;;;-0.18;98.02;98231.47;4135588;28;20206;-49
2023/03/12 00:12:20;;;;;;;10.97;9.87;;;;;;;-0.15;98.10;98223.06;4116710;28;20318;-48
2023/03/12 00:14:22;;;;;;;8.82;8.02;;;;;;;-0.18;98.60;98226.09;4100219;28;20246;-49
2023/03/12 00:16:24;;;;;;;8.10;7.30;;;;;;;-0.25;98.72;98226.03;4117605;28;20234;-50
2023/03/12 00:18:26;;;;;;;10.90;9.23;;;;;;;-0.32;99.00;98219.75;4119677;28;20628;-49
2023/03/12 00:20:28;;;;;;;10.47;9.53;;;;;;;-0.35;99.13;98225.50;4104220;28;20215;-49
2023/03/12 00:22:30;;;;;;;9.33;8.40;;;;;;;-0.33;99.06;98220.78;4118946;28;20261;-49
2023/03/12 00:24:32;;;;;;;9.97;8.97;;;;;;;-0.34;99.43;98223.66;4117874;28;20655;-49
2023/03/12 00:26:34;;;;;;;14.45;10.82;;;;;;;-0.27;99.34;98222.69;4116466;28;20217;-49
2023/03/12 00:28:36;;;;;;;14.87;8.37;;;;;;;-0.26;99.21;98221.69;4125876;28;20666;-48
2023/03/12 00:30:39;;;;;;;11.37;8.90;;;;;;;-0.23;98.98;98228.53;4118167;28;20202;-49
2023/03/12 00:32:41;;;;;;;9.37;8.33;;;;;;;-0.22;99.05;98219.47;4119094;28;20226;-49
2023/03/12 00:34:43;;;;;;;9.90;8.97;;;;;;;-0.16;99.43;98224.09;4123450;28;20702;-49
2023/03/12 00:36:45;;;;;;;10.17;9.23;;;;;;;-0.24;99.19;98221.47;4124053;28;20241;-49
2023/03/12 00:38:46;;;;;;;10.70;8.83;;;;;;;-0.25;99.37;98227.88;4119725;28;20259;-49
2023/03/12 00:40:48;;;;;;;9.90;8.55;;;;;;;-0.25;99.40;98225.19;4122730;28;20305;-49
2023/03/12 00:42:50;;;;;;;8.48;7.68;;;;;;;-0.27;99.37;98232.63;4122649;28;20226;-49
2023/03/12 00:44:51;;;;;;;9.67;8.83;;;;;;;-0.34;99.19;98226.34;4126271;28;20221;-50
2023/03/12 00:46:53;;;;;;;13.03;8.60;;;;;;;-0.42;98.84;98229.16;4131309;28;20734;-49
2023/03/12 00:48:55;;;;;;;10.33;9.43;;;;;;;-0.42;99.03;98229.97;4121355;28;20698;-49
2023/03/12 00:50:57;;;;;;;10.15;9.23;;;;;;;-0.33;99.38;98223.47;4123512;28;20297;-49
2023/03/12 00:52:59;;;;;;;9.60;8.60;;;;;;;-0.39;99.22;98224.22;4118241;28;20268;-49
2023/03/12 00:55:03;;;;;;;10.00;9.07;;;;;;;-0.40;99.33;98222.53;4117093;28;20222;-49
2023/03/12 00:57:05;;;;;;;13.47;10.17;;;;;;;-0.38;99.38;98225.03;4118492;28;20216;-48
2023/03/12 00:59:07;;;;;;;8.87;8.03;;;;;;;-0.38;99.38;98225.03;4117737;28;20670;-49
2023/03/12 01:01:09;;;;;;;9.07;8.10;;;;;;;-0.43;99.85;98222.94;4100768;28;20310;-50
2023/03/12 01:03:11;;;;;;;10.67;8.30;;;;;;;-0.38;99.47;98220.50;4116808;28;20300;-50
2023/03/12 01:05:13;;;;;;;8.63;7.83;;;;;;;-0.38;99.54;98220.50;4135168;28;20225;-49
2023/03/12 01:07:15;;;;;;;11.07;10.17;;;;;;;-0.45;99.69;98219.59;4119980;28;20449;-49
2023/03/12 01:09:16;;;;;;;10.17;9.23;;;;;;;-0.46;99.76;98225.16;4123112;28;20890;-49
2023/03/12 01:11:19;;;;;;;8.93;8.10;;;;;;;-0.40;100.00;98224.41;4106791;28;20235;-51
2023/03/12 01:13:21;;;;;;;10.57;8.47;;;;;;;-0.39;99.81;98228.75;4135959;28;20209;-49
2023/03/12 01:15:23;;;;;;;9.70;8.90;;;;;;;-0.45;100.00;98229.50;4121448;28;20280;-49
2023/03/12 01:17:24;;;;;;;9.33;8.40;;;;;;;-0.47;99.83;98220.81;4123265;28;20297;-48
2023/03/12 01:19:26;;;;;;;10.27;9.37;;;;;;;-0.50;100.00;98215.81;4120053;28;20700;-50
2023/03/12 01:21:29;;;;;;;9.63;8.33;;;;;;;-0.53;100.00;98210.81;4106730;28;20293;-49
2023/03/12 01:23:31;;;;;;;7.63;6.80;;;;;;;-0.58;100.00;98214.06;4121257;28;20202;-51
2023/03/12 01:25:34;;;;;;;10.30;9.30;;;;;;;-0.61;100.00;98221.66;4124250;28;20208;-49
2023/03/12 01:27:36;;;;;;;14.07;10.60;;;;;;;-0.64;100.00;98212.13;4123417;28;20248;-49
2023/03/12 01:29:38;;;;;;;8.97;8.17;;;;;;;-0.57;100.00;98212.19;4135250;28;20260;-48
2023/03/12 01:31:40;;;;;;;8.70;7.90;;;;;;;-0.59;100.00;98206.19;4120096;28;20606;-50
2023/03/12 01:33:42;;;;;;;9.87;8.23;;;;;;;-0.62;100.00;98206.59;4136208;28;20205;-49
2023/03/12 01:35:44;;;;;;;8.80;7.90;;;;;;;-0.60;100.00;98212.59;4118790;28;20214;-49
2023/03/12 01:37:45;;;;;;;9.33;8.40;;;;;;;-0.61;100.00;98210.94;4135417;28;20305;-49
2023/03/12 01:39:47;;;;;;;9.20;8.23;;;;;;;-0.45;100.00;98202.63;4125593;28;20214;-50
2023/03/12 01:41:49;;;;;;;9.40;8.57;;;;;;;-0.49;100.00;98202.19;4125087;28;20257;-48
2023/03/12 01:43:51;;;;;;;11.50;7.97;;;;;;;-0.47;100.00;98196.63;4136209;28;20754;-52
2023/03/12 01:46:16;;;;;;;9.13;8.20;;;;;;;-0.49;100.00;98204.06;4119432;28;20228;-50
2023/03/12 01:48:18;;;;;;;8.67;7.60;;;;;;;-0.44;100.00;98194.41;4105180;28;20242;-50
2023/03/12 01:50:20;;;;;;;9.97;9.07;;;;;;;-0.48;100.00;98192.28;4119676;28;20217;-50
2023/03/12 01:52:24;;;;;;;9.03;8.13;;;;;;;-0.47;100.00;98185.88;4136319;28;20347;-51
2023/03/12 01:54:34;;;;;;;9.80;8.80;;;;;;;-0.36;100.00;98185.41;4125322;28;20229;-50
2023/03/12 01:56:36;;;;;;;8.67;7.77;;;;;;;-0.38;100.00;98187.44;4120087;28;20233;-51
2023/03/12 01:58:41;;;;;;;10.47;8.10;;;;;;;-0.35;100.00;98192.44;4119424;28;20206;-51
2023/03/12 02:00:43;;;;;;;9.20;8.30;;;;;;;-0.38;100.00;98185.59;4135943;28;20649;-50
2023/03/12 02:02:46;;;;;;;9.80;8.80;;;;;;;-0.35;100.00;98184.38;4118802;28;20234;-52
2023/03/12 02:04:47;;;;;;;8.63;7.90;;;;;;;-0.37;100.00;98195.31;4123868;28;20644;-51
2023/03/12 02:07:00;;;;;;;9.87;8.77;;;;;;;-0.36;100.00;98183.53;4128686;28;20305;-50
2023/03/12 02:09:02;;;;;;;8.43;7.63;;;;;;;-0.30;100.00;98174.72;4127549;28;20240;-52
2023/03/12 02:11:04;;;;;;;8.67;7.40;;;;;;;-0.26;100.00;98176.00;4104526;28;20298;-51
2023/03/12 02:13:06;;;;;;;13.33;7.97;;;;;;;-0.27;100.00;98170.81;4120898;28;20258;-50
2023/03/12 02:15:08;;;;;;;9.13;6.93;;;;;;;-0.27;100.00;98168.13;4119061;28;20321;-50
2023/03/12 02:17:10;;;;;;;10.20;8.43;;;;;;;-0.22;100.00;98171.91;4137710;28;20293;-49
2023/03/12 02:19:29;;;;;;;11.90;7.37;;;;;;;-0.27;100.00;98174.31;4126671;28;20247;-51
2023/03/12 02:21:32;;;;;;;9.60;8.30;;;;;;;-0.28;100.00;98174.53;4136450;28;20292;-50
2023/03/12 02:23:48;;;;;;;8.00;7.20;;;;;;;-0.26;100.00;98170.63;4109864;28;20215;-51
2023/03/12 02:25:51;;;;;;;7.23;6.53;;;;;;;-0.30;100.00;98169.34;4117119;28;20237;-50
2023/03/12 02:27:53;;;;;;;10.00;6.47;;;;;;;-0.29;100.00;98176.38;4120479;28;20685;-50
2023/03/12 02:29:55;;;;;;;7.30;6.57;;;;;;;-0.25;100.00;98179.50;4125586;28;20218;-50
2023/03/12 02:31:58;;;;;;;6.37;5.60;;;;;;;-0.13;100.00;98175.28;4119428;28;20226;-51
2023/03/12 02:34:00;;;;;;;8.10;6.53;;;;;;;-0.26;100.00;98176.00;4120606;28;20211;-50
2023/03/12 02:36:02;;;;;;;7.77;7.03;;;;;;;-0.24;100.00;98175.78;4104454;28;20306;-50
2023/03/12 02:38:43;;;;;;;7.83;6.20;;;;;;;-0.13;100.00;98160.81;4104728;28;20211;-50
2023/03/12 02:40:45;;;;;;;7.20;6.43;;;;;;;-0.11;100.00;98158.78;4120012;28;20224;-50
2023/03/12 02:42:47;;;;;;;7.03;5.73;;;;;;;-0.17;100.00;98160.56;4124163;28;20315;-49
2023/03/12 02:44:49;;;;;;;8.13;6.50;;;;;;;-0.16;100.00;98162.25;4126348;28;20281;-50
2023/03/12 02:46:53;;;;;;;9.60;5.90;;;;;;;-0.17;100.00;98163.25;4119622;28;20221;-50
2023/03/12 02:48:55;;;;;;;5.67;4.93;;;;;;;-0.16;100.00;98156.88;4119531;28;20566;-50
2023/03/12 02:50:56;;;;;;;7.03;5.37;;;;;;;-0.17;100.00;98157.88;4119908;28;20241;-50
2023/03/12 02:52:58;;;;;;;7.10;5.60;;;;;;;-0.12;100.00;98157.13;4117356;28;20257;-50
2023/03/12 02:55:00;;;;;;;5.43;5.03;;;;;;;-0.14;100.00;98157.50;4119784;28;20236;-50
2023/03/12 02:57:02;;;;;;;10.27;5.37;;;;;;;-0.13;100.00;98153.78;4122725;28;20207;-51
2023/03/12 02:59:04;;;;;;;8.57;5.23;;;;;;;-0.09;100.00;98149.72;4118167;28;20805;-50
2023/03/12 03:01:06;;;;;;;6.80;5.40;;;;;;;-0.08;100.00;98158.41;4118508;28;20595;-49
2023/03/12 03:03:07;;;;;;;6.17;5.67;;;;;;;-0.07;100.00;98154.69;4126042;28;20230;-50
2023/03/12 03:05:10;;;;;;;7.17;6.47;;;;;;;-0.05;100.00;98158.00;4125194;28;20210;-50
2023/03/12 03:07:13;;;;;;;6.53;5.85;;;;;;;-0.03;100.00;98155.97;4119986;28;20248;-50
2023/03/12 03:09:15;;;;;;;5.77;5.20;;;;;;;-0.01;100.00;98153.91;4120575;28;20234;-50
2023/03/12 03:11:18;;;;;;;8.97;5.63;;;;;;;0.01;100.00;98145.66;4118814;28;20233;-50
2023/03/12 03:13:19;;;;;;;6.43;5.05;;;;;;;0.05;100.00;98141.56;4124686;28;20660;-50
2023/03/12 03:15:21;;;;;;;6.70;5.68;;;;;;;0.01;100.00;98140.28;4123201;28;20663;-50
2023/03/12 03:17:23;;;;;;;6.60;5.60;;;;;;;0.01;100.00;98140.28;4126091;28;20888;-49
2023/03/12 03:19:25;;;;;;;10.50;5.97;;;;;;;0.05;100.00;98147.78;4135918;28;20782;-48
2023/03/12 03:21:26;;;;;;;8.93;5.70;;;;;;;0.04;100.00;98140.75;4119625;28;20210;-49
2023/03/12 03:23:28;;;;;;;9.33;5.40;;;;;;;0.02;100.00;98148.13;4119846;28;20207;-50
2023/03/12 03:25:32;;;;;;;6.20;5.80;;;;;;;0.05;100.00;98139.72;4124126;28;20218;-50
2023/03/12 03:27:34;;;;;;;6.55;5.95;;;;;;;0.04;100.00;98140.75;4120326;28;20658;-49
2023/03/12 03:29:36;;;;;;;7.03;5.18;;;;;;;0.04;100.00;98146.13;4116719;28;20285;-50
2023/03/12 03:31:37;;;;;;;9.77;6.33;;;;;;;0.11;100.00;98144.31;4116484;28;20261;-49
2023/03/12 03:33:39;;;;;;;6.57;5.82;;;;;;;0.10;100.00;98153.41;4119453;28;20209;-49
2023/03/12 03:35:41;;;;;;;6.87;6.30;;;;;;;0.12;100.00;98147.81;4118836;28;20261;-49
2023/03/12 03:37:43;;;;;;;6.17;5.60;;;;;;;0.16;100.00;98149.91;4136763;28;20213;-49
2023/03/12 03:39:45;;;;;;;6.13;5.63;;;;;;;0.14;100.00;98162.75;4137698;28;20217;-50
2023/03/12 03:41:46;;;;;;;6.07;5.50;;;;;;;0.13;100.00;98161.06;4108407;28;20300;-50
2023/03/12 03:43:48;;;;;;;6.22;5.68;;;;;;;0.14;100.00;98159.25;4122750;28;20637;-50
2023/03/12 03:46:03;;;;;;;6.10;5.57;;;;;;;0.17;100.00;98162.38;4119297;28;20306;-50
2023/03/12 03:48:05;;;;;;;6.63;4.43;;;;;;;0.19;100.00;98164.84;4118980;28;20209;-49
2023/03/12 03:50:07;;;;;;;7.33;5.83;;;;;;;0.21;100.00;98163.63;4119051;28;20233;-49
2023/03/12 03:52:09;;;;;;;13.20;5.68;;;;;;;0.17;100.00;98170.44;4123196;28;22272;-51
2023/03/12 03:54:13;;;;;;;5.20;4.70;;;;;;;0.19;100.00;98165.69;4135051;28;20224;-50
2023/03/12 03:56:15;;;;;;;7.97;4.50;;;;;;;0.33;100.00;98169.31;4117690;28;20222;-50
2023/03/12 03:58:17;;;;;;;4.20;3.90;;;;;;;0.23;100.00;98168.81;4120156;28;20691;-49
2023/03/12 04:00:19;;;;;;;3.70;3.40;;;;;;;0.19;100.00;98171.06;4120461;28;20253;-49
2023/03/12 04:02:21;;;;;;;4.67;4.27;;;;;;;0.24;100.00;98168.63;4120289;28;20340;-49
2023/03/12 04:04:22;;;;;;;3.63;2.83;;;;;;;0.22;100.00;98164.47;4126016;28;20199;-50
2023/03/12 04:06:25;;;;;;;4.03;3.25;;;;;;;0.22;100.00;98164.47;4134697;28;20548;-51
2023/03/12 04:08:27;;;;;;;3.70;2.78;;;;;;;0.21;100.00;98169.00;4127870;28;20269;-49
2023/03/12 04:10:29;;;;;;;3.57;3.27;;;;;;;0.23;100.00;98161.59;4119552;28;20216;-49
2023/03/12 04:12:31;;;;;;;3.65;3.35;;;;;;;-0.05;100.00;98162.56;4117300;28;20968;-50
2023/03/12 04:14:33;;;;;;;4.78;3.40;;;;;;;0.02;100.00;98150.84;4124260;28;20241;-50
2023/03/12 04:16:34;;;;;;;3.72;3.42;;;;;;;0.19;100.00;98154.94;4137027;28;20213;-49
2023/03/12 04:18:36;;;;;;;3.53;2.70;;;;;;;-0.09;100.00;98157.78;4100867;28;20254;-52
2023/03/12 04:20:38;;;;;;;3.37;3.03;;;;;;;-0.19;100.00;98149.19;4135769;28;20246;-49
2023/03/12 04:22:40;;;;;;;5.07;3.77;;;;;;;-0.26;100.00;98145.59;4104437;28;20317;-48
2023/03/12 04:24:41;;;;;;;4.50;3.85;;;;;;;-0.18;100.00;98148.16;4133496;28;20259;-51
2023/03/12 04:26:43;;;;;;;4.03;3.60;;;;;;;-0.16;100.00;98138.88;4125022;28;20781;-49
2023/03/12 04:28:44;;;;;;;5.67;3.70;;;;;;;-0.13;100.00;98135.81;4120822;28;20754;-49
2023/03/12 04:30:58;;;;;;;6.37;3.93;;;;;;;-0.13;100.00;98137.66;4135497;28;20241;-50
2023/03/12 04:33:00;;;;;;;5.17;4.33;;;;;;;-0.08;100.00;98131.53;4118308;28;20225;-49
2023/03/12 04:35:01;;;;;;;4.40;3.63;;;;;;;-0.07;100.00;98133.19;4119003;28;20321;-49
2023/03/12 04:37:03;;;;;;;7.43;3.37;;;;;;;0.00;100.00;98127.88;4133957;28;20685;-49
2023/03/12 04:39:08;;;;;;;4.60;4.13;;;;;;;0.05;100.00;98120.88;4120507;28;20260;-49
2023/03/12 04:41:12;;;;;;;5.77;4.50;;;;;;;0.10;100.00;98123.84;4118228;28;20256;-49
2023/03/12 04:43:14;;;;;;;3.95;3.45;;;;;;;0.06;100.00;98114.47;4121760;28;20260;-49
2023/03/12 04:45:16;;;;;;;8.95;3.75;;;;;;;0.14;100.00;98108.94;4136449;28;20662;-50
2023/03/12 04:47:18;;;;;;;4.83;3.90;;;;;;;0.02;100.00;98109.69;4119560;28;20607;-49
2023/03/12 04:49:20;;;;;;;8.47;4.27;;;;;;;-0.11;100.00;98115.75;4123759;28;20337;-49
2023/03/12 04:51:21;;;;;;;3.85;3.50;;;;;;;0.03;100.00;98106.81;4122523;28;20214;-50
2023/03/12 04:53:23;;;;;;;5.07;3.50;;;;;;;0.01;100.00;98106.16;4137966;28;20237;-49
2023/03/12 04:55:25;;;;;;;3.93;3.53;;;;;;;0.02;100.00;98102.44;4121665;28;20240;-50
2023/03/12 04:57:27;;;;;;;4.37;3.90;;;;;;;0.19;100.00;98101.13;4119097;28;20233;-49
2023/03/12 04:59:29;;;;;;;5.80;4.13;;;;;;;-0.18;100.00;98097.06;4122836;28;20993;-50
2023/03/12 05:01:33;;;;;;;4.83;4.10;;;;;;;-0.07;100.00;98097.38;4119591;28;20297;-49
2023/03/12 05:03:35;;;;;;;5.10;4.70;;;;;;;-0.11;100.00;98102.31;4120242;28;20594;-51
2023/03/12 05:05:37;;;;;;;4.73;4.23;;;;;;;-0.03;100.00;98096.81;4137088;28;20242;-49
2023/03/12 05:07:38;;;;;;;4.53;3.97;;;;;;;0.14;100.00;98098.19;4121404;28;20206;-50
2023/03/12 05:09:40;;;;;;;4.63;3.78;;;;;;;0.12;100.00;98092.19;4121083;28;20252;-49
2023/03/12 05:11:42;;;;;;;5.67;4.57;;;;;;;0.16;100.00;98092.63;4125143;28;20336;-49
2023/03/12 05:13:43;;;;;;;6.43;2.70;;;;;;;0.20;100.00;98094.72;4123500;28;21260;-49
2023/03/12 05:15:46;;;;;;;3.73;3.40;;;;;;;0.31;100.00;98088.81;4136286;28;20316;-49
2023/03/12 05:17:48;;;;;;;6.63;3.23;;;;;;;0.27;100.00;98092.91;4126395;28;20301;-49
2023/03/12 05:19:49;;;;;;;3.55;3.25;;;;;;;0.40;100.00;98076.84;4122867;28;20619;-49
2023/03/12 05:21:51;;;;;;;3.87;2.90;;;;;;;0.29;100.00;98088.16;4120909;28;20333;-49
2023/03/12 05:23:53;;;;;;;4.00;2.83;;;;;;;0.30;100.00;98081.78;4126453;28;20210;-50
2023/03/12 05:25:55;;;;;;;2.60;2.43;;;;;;;0.33;100.00;98084.06;4124533;28;20283;-49
2023/03/12 05:27:56;;;;;;;3.20;3.00;;;;;;;0.33;100.00;98078.69;4120542;28;20775;-50
2023/03/12 05:29:58;;;;;;;5.57;2.87;;;;;;;0.37;100.00;98082.66;4120732;28;20242;-49
2023/03/12 05:32:01;;;;;;;2.90;2.70;;;;;;;0.39;100.00;98088.66;4122532;28;20261;-50
2023/03/12 05:34:03;;;;;;;6.35;3.03;;;;;;;0.42;100.00;98090.94;4120270;28;20300;-50
2023/03/12 05:36:05;;;;;;;3.75;2.67;;;;;;;0.43;100.00;98092.63;4135800;28;20222;-50
2023/03/12 05:38:07;;;;;;;4.47;2.97;;;;;;;0.46;100.00;98091.38;4106115;28;20764;-49
2023/03/12 05:40:10;;;;;;;4.38;2.65;;;;;;;0.56;100.00;98087.31;4125743;28;20221;-49
2023/03/12 05:42:13;;;;;;;2.85;2.63;;;;;;;0.55;100.00;98085.63;4136281;28;20234;-49
2023/03/12 05:44:15;;;;;;;5.05;2.75;;;;;;;0.49;100.00;98091.00;4133610;28;20293;-51
2023/03/12 05:46:16;;;;;;;5.38;2.80;;;;;;;0.48;100.00;98084.78;4123638;28;20315;-50
2023/03/12 05:48:19;;;;;;;3.20;2.90;;;;;;;0.53;100.00;98081.47;4126254;28;20577;-49
2023/03/12 05:50:20;;;;;;;5.15;2.88;;;;;;;0.56;100.00;98081.91;4120023;28;20214;-49
2023/03/12 05:52:22;;;;;;;4.25;3.85;;;;;;;0.53;100.00;98079.63;4107021;28;20269;-49
2023/03/12 05:54:24;;;;;;;4.65;4.07;;;;;;;0.57;100.00;98072.84;4126391;28;20289;-49
2023/03/12 05:56:26;;;;;;;4.30;3.92;;;;;;;0.52;100.00;98069.06;4136862;28;20261;-49
2023/03/12 05:58:27;;;;;;;9.57;8.60;;;;;;;0.48;100.00;98071.31;4119179;28;20246;-49
2023/03/12 06:00:30;;;;;;;6.90;6.40;;;;;;;0.49;100.00;98070.28;4126293;28;20325;-50
2023/03/12 06:02:32;;;;;;;7.75;7.13;;;;;;;0.45;100.00;98082.50;4127722;28;20254;-49
2023/03/12 06:04:33;;;;;;;9.15;5.53;;;;;;;0.48;100.00;98078.56;4137049;28;20593;-50
2023/03/12 06:06:36;;;;;;;7.95;3.78;;;;;;;0.56;100.00;98086.50;4128181;28;20692;-49
2023/03/12 06:08:39;;;;;;;3.20;3.00;;;;;;;0.61;100.00;98084.03;4137049;28;20541;-49
2023/03/12 06:10:40;;;;;;;4.32;2.85;;;;;;;0.54;100.00;98083.19;4119919;28;20269;-49
2023/03/12 06:12:42;;;;;;;4.38;2.63;;;;;;;0.53;100.00;98081.47;4127297;28;21088;-50
2023/03/12 06:14:44;;;;;;;4.22;3.05;;;;;;;0.56;100.00;98083.78;4128242;28;20230;-49
2023/03/12 06:16:45;;;;;;;3.38;3.08;;;;;;;0.56;100.00;98084.59;4124666;28;20278;-50
2023/03/12 06:18:48;;;;;;;3.60;3.17;;;;;;;0.59;100.00;98081.53;4121203;28;20234;-49
2023/03/12 06:20:50;;;;;;;4.03;3.00;;;;;;;0.65;100.00;98090.66;4136497;28;20296;-49
2023/03/12 06:22:51;;;;;;;5.78;3.00;;;;;;;0.60;100.00;98093.97;4120711;28;20608;-49
2023/03/12 06:24:53;;;;;;;3.40;3.10;;;;;;;0.59;100.00;98092.31;4123825;28;20210;-49
2023/03/12 06:26:55;;;;;;;2.67;2.47;;;;;;;0.60;100.00;98087.75;4126216;28;20296;-49
2023/03/12 06:28:56;;;;;;;4.47;2.75;;;;;;;0.70;100.00;98088.22;4124983;28;20242;-49
2023/03/12 06:30:58;;;;;;;3.92;2.92;;;;;;;0.66;100.00;98082.41;4120177;28;20242;-49
2023/03/12 06:33:02;;;;;;;6.82;3.42;;;;;;;0.62;100.00;98086.50;4121184;28;20737;-49
2023/03/12 06:35:04;;;;;;;2.08;1.98;;;;;;;0.51;100.00;98083.56;4124364;28;20206;-49
2023/03/12 06:37:06;;;;;;;5.07;4.30;;;;;;;0.49;100.00;98082.94;4123053;28;20261;-49
2023/03/12 06:39:08;;;;;;;8.87;3.20;;;;;;;0.46;100.00;98092.22;4126304;28;20209;-49
2023/03/12 06:41:13;;;;;;;4.32;3.67;;;;;;;0.54;100.00;98081.28;4105807;28;20286;-49
2023/03/12 06:43:14;;;;;;;7.05;3.72;;;;;;;0.71;100.00;98090.72;4120788;28;20222;-49
2023/03/12 06:45:16;;;;;;;3.92;2.88;;;;;;;0.65;100.00;98096.91;4120118;28;20674;-49
2023/03/12 06:47:18;;;;;;;7.45;2.95;;;;;;;0.70;100.00;98094.44;4125921;28;20238;-49
2023/03/12 06:49:19;;;;;;;4.53;3.10;;;;;;;0.68;100.00;98096.50;4133684;28;20237;-49
2023/03/12 06:51:21;;;;;;;4.82;4.53;;;;;;;0.70;100.00;98099.00;4126366;28;20207;-49
2023/03/12 06:53:24;;;;;;;3.65;3.35;;;;;;;0.69;100.00;98092.75;4124999;28;20203;-50
2023/03/12 06:55:26;;;;;;;4.60;3.85;;;;;;;0.77;100.00;98099.84;4120053;28;20206;-49
2023/03/12 06:57:28;;;;;;;3.95;3.55;;;;;;;0.76;100.00;98106.28;4126225;28;20209;-50
2023/03/12 06:59:30;;;;;;;4.05;3.65;;;;;;;0.74;100.00;98101.09;4133560;28;20235;-50
2023/03/12 07:01:31;;;;;;;4.15;2.97;;;;;;;0.80;100.00;98102.97;4135048;28;20210;-50
2023/03/12 07:03:33;;;;;;;6.30;3.33;;;;;;;0.80;100.00;98094.91;4103881;28;20302;-49
2023/03/12 07:05:35;;;;;;;4.85;3.97;;;;;;;0.84;100.00;98095.34;4124457;28;20217;-49
2023/03/12 07:07:37;;;;;;;3.25;3.00;;;;;;;0.91;100.00;98097.03;4122977;28;20676;-50
2023/03/12 07:09:39;;;;;;;3.60;3.40;;;;;;;0.91;100.00;98090.81;4119298;28;20794;-49
2023/03/12 07:11:41;;;;;;;6.43;4.25;;;;;;;0.93;100.00;98100.34;4121760;28;20229;-50
2023/03/12 07:13:43;;;;;;;8.40;4.20;;;;;;;0.93;100.00;98094.97;4120972;28;20272;-51
2023/03/12 07:15:45;;;;;;;4.78;3.17;;;;;;;0.98;100.00;98097.91;4120395;28;20242;-50
2023/03/12 07:17:49;;;;;;;6.35;3.83;;;;;;;1.01;100.00;98102.88;4121887;28;20218;-51
2023/03/12 07:19:51;;;;;;;4.45;3.95;;;;;;;1.08;100.00;98092.97;4118829;28;20237;-50
2023/03/12 07:21:53;;;;;;;4.28;3.97;;;;;;;1.12;100.00;98104.16;4131844;28;20686;-51
2023/03/12 07:23:54;;;;;;;9.13;4.82;;;;;;;1.24;100.00;98106.09;4119834;28;20755;-50
2023/03/12 07:25:56;;;;;;;4.63;4.18;;;;;;;1.14;100.00;98097.53;4122631;28;20245;-51
2023/03/12 07:27:58;;;;;;;6.43;3.45;;;;;;;1.19;100.00;98111.25;4135962;28;20296;-50
2023/03/12 07:29:59;;;;;;;4.28;3.97;;;;;;;1.15;100.00;98104.59;4118698;28;20684;-51
2023/03/12 07:32:01;;;;;;;7.72;3.55;;;;;;;1.16;100.00;98106.28;4119276;28;20640;-51
2023/03/12 07:34:04;;;;;;;8.00;5.00;;;;;;;1.21;100.00;98109.19;4120436;28;20305;-50
2023/03/12 07:36:07;;;;;;;9.38;8.32;;;;;;;1.16;100.00;98111.66;4104363;28;20238;-51
2023/03/12 07:38:08;;;;;;;9.65;6.82;;;;;;;1.21;100.00;98111.06;4119638;28;20210;-49
2023/03/12 07:40:11;;;;;;;8.32;6.45;;;;;;;1.14;100.00;98113.72;4119967;28;20214;-50
2023/03/12 07:42:12;;;;;;;7.97;7.15;;;;;;;1.21;100.00;98114.56;4135508;28;20233;-50
2023/03/12 07:44:14;;;;;;;8.68;6.57;;;;;;;1.19;100.00;98116.63;4121174;28;20770;-50
2023/03/12 07:46:16;;;;;;;5.72;5.22;;;;;;;1.33;100.00;98121.03;4119799;28;20202;-51
2023/03/12 07:48:18;;;;;;;5.45;4.95;;;;;;;1.34;100.00;98113.81;4119791;28;20226;-50
2023/03/12 07:50:21;;;;;;;6.63;6.03;;;;;;;1.28;100.00;98114.59;4120761;28;20209;-50
2023/03/12 07:52:23;;;;;;;6.45;5.93;;;;;;;1.29;100.00;98122.47;4136947;28;20230;-50
2023/03/12 07:54:29;;;;;;;5.22;4.72;;;;;;;1.29;100.00;98118.97;4118539;28;20218;-51
2023/03/12 07:56:31;;;;;;;6.30;4.43;;;;;;;1.37;100.00;98119.63;4133461;28;20289;-50
2023/03/12 07:58:35;;;;;;;4.35;3.92;;;;;;;1.35;100.00;98120.84;4127002;28;20218;-50
2023/03/12 08:00:37;;;;;;;4.68;3.38;;;;;;;1.38;100.00;98126.66;4126011;28;20679;-50
2023/03/12 08:02:39;;;;;;;5.32;4.82;;;;;;;1.34;100.00;98128.09;4114089;28;20317;-50
2023/03/12 08:04:41;;;;;;;4.55;4.25;;;;;;;1.43;100.00;98131.44;4125725;28;20699;-50
2023/03/12 08:06:42;;;;;;;4.75;4.45;;;;;;;1.47;100.00;98125.44;4123563;28;20249;-51
2023/03/12 08:08:45;;;;;;;4.95;4.53;;;;;;;1.51;100.00;98129.41;4135327;28;20224;-50
2023/03/12 08:10:47;;;;;;;4.82;4.43;;;;;;;1.44;100.00;98131.25;4122273;28;20249;-50
2023/03/12 08:12:49;;;;;;;5.03;4.53;;;;;;;1.45;100.00;98127.53;4123712;28;20374;-50
2023/03/12 08:14:51;;;;;;;8.00;5.43;;;;;;;1.51;100.00;98129.41;4125095;28;20229;-50
2023/03/12 08:16:52;;;;;;;5.80;5.00;;;;;;;1.58;100.00;98116.78;4103860;28;20434;-50
2023/03/12 08:18:54;;;;;;;9.27;8.30;;;;;;;1.53;100.00;98119.25;4124959;28;20302;-51
2023/03/12 08:20:56;;;;;;;9.52;7.63;;;;;;;1.55;100.00;98114.47;4107364;28;20743;-51
2023/03/12 08:22:58;;;;;;;8.43;7.20;;;;;;;1.62;100.00;98112.63;4124282;28;20237;-50
2023/03/12 08:24:59;;;;;;;9.25;8.40;;;;;;;1.70;100.00;98115.16;4116862;28;20206;-50
2023/03/12 08:27:01;;;;;;;8.55;7.85;;;;;;;1.88;100.00;98111.88;4121020;28;20217;-50
2023/03/12 08:29:03;;;;;;;8.10;7.38;;;;;;;1.94;100.00;98125.34;4126655;28;20337;-50
2023/03/12 08:31:05;;;;;;;8.27;7.47;;;;;;;1.95;100.00;98128.88;4127114;28;20210;-50
2023/03/12 08:33:07;;;;;;;7.93;7.22;;;;;;;2.02;100.00;98130.53;4123928;28;20237;-50
2023/03/12 08:35:09;;;;;;;8.75;8.00;;;;;;;1.94;100.00;98133.44;4126208;28;20212;-50
2023/03/12 08:37:10;;;;;;;8.27;7.57;;;;;;;1.99;100.00;98130.97;4135588;28;20375;-50
2023/03/12 08:39:12;;;;;;;6.22;5.72;;;;;;;2.05;100.00;98140.94;4119144;28;20220;-52
2023/03/12 08:41:14;;;;;;;7.22;6.57;;;;;;;2.05;100.00;98142.78;4127267;28;20289;-50
2023/03/12 08:43:15;;;;;;;8.45;7.38;;;;;;;1.83;100.00;98125.97;4137772;28;20385;-50
2023/03/12 08:45:17;;;;;;;9.07;8.18;;;;;;;1.98;100.00;98134.69;4124897;28;21747;-51
2023/03/12 08:47:19;;;;;;;9.63;7.28;;;;;;;1.97;100.00;98133.03;4122626;28;20217;-52
2023/03/12 08:50:15;;;;;;;12.48;6.88;;;;;;;2.10;100.00;98138.44;4125766;28;20635;-49
2023/03/12 08:52:17;;;;;;;6.85;6.25;;;;;;;2.10;100.00;98133.06;4137677;28;20400;-50
2023/03/12 08:54:19;;;;;;;8.43;7.75;;;;;;;2.07;100.00;98136.16;4137137;28;20233;-50
2023/03/12 08:56:21;;;;;;;8.38;7.63;;;;;;;2.09;100.00;98136.78;4105017;28;20744;-51
2023/03/12 08:58:23;;;;;;;6.90;6.32;;;;;;;2.15;100.00;98145.94;4120726;28;20217;-50
2023/03/12 09:00:25;;;;;;;7.20;6.60;;;;;;;2.16;100.00;98148.44;4123954;28;20313;-50
2023/03/12 09:02:27;;;;;;;7.75;7.22;;;;;;;2.23;100.00;98154.66;4120063;28;20281;-50
2023/03/12 09:04:29;;;;;;;8.68;7.97;;;;;;;2.29;100.00;98150.28;4122870;28;20285;-50
2023/03/12 09:06:34;;;;;;;7.53;6.97;;;;;;;2.29;100.00;98153.84;4108460;28;20218;-50
2023/03/12 09:08:35;;;;;;;10.93;7.07;;;;;;;2.38;100.00;98152.59;4120006;28;20249;-49
2023/03/12 09:10:37;;;;;;;7.53;6.97;;;;;;;2.26;100.00;98159.63;4135234;28;20225;-50
2023/03/12 09:12:39;;;;;;;7.70;7.10;;;;;;;2.28;100.00;98152.16;4118334;28;20229;-50
2023/03/12 09:14:41;;;;;;;9.35;8.45;;;;;;;2.23;100.00;98160.06;4136293;28;20226;-50
2023/03/12 09:17:02;;;;;;;8.15;7.60;;;;;;;2.20;100.00;98155.06;4119013;28;20230;-50
2023/03/12 09:19:04;;;;;;;8.27;7.63;;;;;;;2.32;100.00;98158.81;4122984;28;20207;-50
2023/03/12 09:21:06;;;;;;;8.48;7.85;;;;;;;2.35;100.00;98147.56;4136534;28;20260;-50
2023/03/12 09:23:07;;;;;;;9.75;8.95;;;;;;;2.47;100.00;98145.91;4119431;28;20747;-50
2023/03/12 09:25:10;;;;;;;9.18;8.43;;;;;;;2.53;100.00;98150.50;4118864;28;20210;-50
2023/03/12 09:27:12;;;;;;;10.10;6.45;;;;;;;2.60;100.00;98154.00;4121062;28;20778;-50
2023/03/12 09:29:14;;;;;;;8.75;8.05;;;;;;;2.71;100.00;98152.56;4094039;28;20239;-50
2023/03/12 09:31:15;;;;;;;7.80;6.93;;;;;;;2.66;100.00;98161.28;4126233;28;20310;-49
2023/03/12 09:33:17;;;;;;;13.35;7.90;;;;;;;2.80;100.00;98156.72;4125426;28;20217;-50